createdAt,value
2019-01-08T00:00:43.262Z,99.96
2019-01-08T00:03:10.747Z,100.00
2019-01-08T00:05:38.346Z,100.00
2019-01-08T00:08:05.780Z,100.00
2019-01-08T00:10:33.340Z,99.15
2019-01-08T00:13:00.978Z,99.45
2019-01-08T00:15:28.499Z,99.29
2019-01-08T00:17:56.009Z,100.00
2019-01-08T00:20:23.622Z,98.99
2019-01-08T00:22:51.271Z,99.13
2019-01-08T00:25:18.940Z,99.65
2019-01-08T00:27:46.747Z,99.78
2019-01-08T00:30:15.243Z,99.65
2019-01-08T00:32:42.729Z,100.00
2019-01-08T00:35:10.330Z,99.05
2019-01-08T00:37:38.087Z,99.84
2019-01-08T00:40:07.444Z,100.00
2019-01-08T00:42:34.959Z,99.80
2019-01-08T00:45:02.532Z,99.57
2019-01-08T00:47:30.054Z,99.68
2019-01-08T00:49:57.534Z,99.49
2019-01-08T00:52:25.056Z,100.00
2019-01-08T00:54:52.530Z,100.00
2019-01-08T00:57:20.013Z,99.65
2019-01-08T00:59:47.550Z,100.00
2019-01-08T01:02:15.095Z,100.00
2019-01-08T01:04:42.637Z,100.00
2019-01-08T01:07:10.143Z,100.00
2019-01-08T01:09:37.654Z,100.00
2019-01-08T01:12:05.156Z,100.00
2019-01-08T01:14:32.728Z,100.00
2019-01-08T01:17:00.655Z,100.00
2019-01-08T01:19:28.261Z,100.00
2019-01-08T01:21:55.796Z,100.00
2019-01-08T01:24:23.290Z,100.00
2019-01-08T01:26:50.825Z,100.00
2019-01-08T01:29:18.429Z,100.00
2019-01-08T01:31:45.956Z,100.00
2019-01-08T01:34:13.518Z,100.00
2019-01-08T01:36:40.969Z,100.00
2019-01-08T01:39:08.504Z,100.00
2019-01-08T01:41:36.030Z,100.00
2019-01-08T01:44:03.519Z,100.00
2019-01-08T01:46:30.979Z,100.00
2019-01-08T01:48:58.562Z,100.00
2019-01-08T01:51:26.085Z,100.00
2019-01-08T01:53:53.574Z,100.00
2019-01-08T01:56:21.094Z,100.00
2019-01-08T01:58:48.637Z,100.00
2019-01-08T02:01:16.246Z,100.00
2019-01-08T02:03:43.772Z,100.00
2019-01-08T02:06:11.405Z,100.00
2019-01-08T02:08:38.965Z,100.00
2019-01-08T02:11:06.461Z,100.00
2019-01-08T02:13:34.052Z,100.00
2019-01-08T02:16:01.677Z,100.00
2019-01-08T02:18:29.149Z,99.54
2019-01-08T02:20:56.773Z,100.00
2019-01-08T02:23:24.315Z,99.73
2019-01-08T02:25:51.770Z,99.83
2019-01-08T02:28:19.317Z,99.36
2019-01-08T02:30:46.907Z,99.56
2019-01-08T02:33:14.547Z,99.73
2019-01-08T02:35:42.044Z,99.88
2019-01-08T02:38:09.525Z,99.94
2019-01-08T02:40:37.155Z,99.42
2019-01-08T02:43:04.822Z,99.47
2019-01-08T02:45:32.296Z,98.78
2019-01-08T02:47:59.891Z,98.16
2019-01-08T02:50:27.488Z,98.19
2019-01-08T02:52:55.155Z,97.29
2019-01-08T02:55:22.690Z,98.39
2019-01-08T02:57:50.240Z,97.93
2019-01-08T03:00:17.800Z,97.41
2019-01-08T03:02:45.420Z,97.59
2019-01-08T03:05:13.116Z,97.05
2019-01-08T03:07:40.563Z,97.04
2019-01-08T03:10:08.110Z,97.90
2019-01-08T03:12:35.761Z,99.10
2019-01-08T03:15:03.706Z,98.96
2019-01-08T03:17:31.290Z,99.15
2019-01-08T03:19:58.928Z,97.56
2019-01-08T03:22:26.440Z,95.46
2019-01-08T03:24:54.024Z,97.45
2019-01-08T03:27:21.585Z,97.91
2019-01-08T03:29:49.123Z,93.37
2019-01-08T03:32:16.706Z,95.85
2019-01-08T03:34:44.305Z,94.64
2019-01-08T03:37:11.795Z,94.07
2019-01-08T03:39:39.373Z,95.37
2019-01-08T03:42:06.993Z,93.53
2019-01-08T03:44:34.609Z,96.11
2019-01-08T03:47:02.176Z,95.09
2019-01-08T03:49:29.883Z,96.64
2019-01-08T03:51:57.388Z,96.89
2019-01-08T03:54:24.874Z,96.99
2019-01-08T03:56:52.392Z,97.15
2019-01-08T03:59:19.964Z,95.47
2019-01-08T04:01:47.484Z,96.93
2019-01-08T04:04:15.073Z,96.95
2019-01-08T04:06:42.594Z,95.69
2019-01-08T04:09:10.192Z,95.80
2019-01-08T04:11:37.702Z,96.39
2019-01-08T04:14:05.157Z,97.05
2019-01-08T04:16:32.716Z,95.57
2019-01-08T04:19:00.248Z,95.33
2019-01-08T04:21:27.843Z,96.55
2019-01-08T04:23:55.319Z,97.43
2019-01-08T04:26:22.766Z,96.96
2019-01-08T04:28:50.306Z,97.82
2019-01-08T04:31:17.772Z,97.99
2019-01-08T04:33:45.269Z,98.20
2019-01-08T04:36:12.910Z,98.21
2019-01-08T04:38:40.385Z,97.33
2019-01-08T04:41:07.969Z,95.59
2019-01-08T04:43:35.618Z,95.77
2019-01-08T04:46:03.406Z,97.32
2019-01-08T04:48:31.133Z,96.29
2019-01-08T04:50:58.897Z,96.72
2019-01-08T04:53:26.484Z,97.19
2019-01-08T04:55:54.079Z,95.46
2019-01-08T04:58:21.958Z,96.73
2019-01-08T05:00:49.967Z,95.11
2019-01-08T05:03:17.827Z,96.47
2019-01-08T05:05:45.662Z,97.00
2019-01-08T05:08:13.436Z,94.62
2019-01-08T05:10:41.305Z,96.24
2019-01-08T05:13:08.921Z,96.89
2019-01-08T05:15:36.916Z,97.27
2019-01-08T05:18:04.514Z,98.01
2019-01-08T05:20:32.235Z,97.97
2019-01-08T05:23:00.018Z,93.73
2019-01-08T05:25:27.680Z,94.29
2019-01-08T05:27:55.419Z,93.62
2019-01-08T05:30:23.220Z,93.71
2019-01-08T05:32:50.941Z,96.50
2019-01-08T05:35:18.716Z,97.10
2019-01-08T05:37:46.375Z,98.29
2019-01-08T05:40:14.136Z,98.22
2019-01-08T05:42:41.904Z,95.29
2019-01-08T05:45:09.641Z,94.67
2019-01-08T05:47:37.371Z,95.68
2019-01-08T05:50:05.293Z,91.83
2019-01-08T05:52:33.073Z,92.88
2019-01-08T05:55:00.887Z,94.61
2019-01-08T05:57:28.663Z,96.12
2019-01-08T05:59:56.357Z,93.34
2019-01-08T06:02:24.197Z,94.70
2019-01-08T06:04:52.405Z,94.55
2019-01-08T06:07:20.179Z,94.33
2019-01-08T06:09:47.802Z,94.81
2019-01-08T06:12:15.420Z,93.42
2019-01-08T06:14:43.207Z,92.39
2019-01-08T06:17:10.811Z,94.77
2019-01-08T06:19:38.580Z,95.01
2019-01-08T06:22:06.204Z,94.72
2019-01-08T06:24:33.864Z,93.55
2019-01-08T06:27:01.390Z,92.50
2019-01-08T06:29:28.956Z,93.24
2019-01-08T06:31:56.583Z,95.03
2019-01-08T06:34:24.338Z,93.33
2019-01-08T06:36:51.831Z,93.98
2019-01-08T06:39:19.591Z,93.03
2019-01-08T06:41:47.259Z,93.59
2019-01-08T06:44:14.966Z,92.93
2019-01-08T06:46:43.210Z,92.28
2019-01-08T06:49:11.551Z,91.76
2019-01-08T06:51:39.551Z,92.07
2019-01-08T06:54:07.769Z,93.16
2019-01-08T06:56:35.697Z,91.80
2019-01-08T06:59:03.587Z,90.74
2019-01-08T07:01:31.636Z,91.12
2019-01-08T07:03:59.624Z,90.93
2019-01-08T07:06:27.621Z,90.34
2019-01-08T07:08:55.670Z,91.63
2019-01-08T07:11:23.971Z,89.64
2019-01-08T07:13:52.293Z,90.45
2019-01-08T07:16:20.386Z,88.40
2019-01-08T07:18:48.180Z,89.74
2019-01-08T07:21:16.124Z,89.03
2019-01-08T07:23:43.990Z,87.43
2019-01-08T07:26:11.961Z,87.16
2019-01-08T07:28:39.946Z,88.26
2019-01-08T07:31:07.856Z,88.17
2019-01-08T07:33:35.761Z,88.58
2019-01-08T07:36:03.832Z,88.28
2019-01-08T07:38:31.647Z,88.56
2019-01-08T07:40:59.364Z,85.94
2019-01-08T07:43:27.198Z,84.57
2019-01-08T07:45:55.198Z,85.15
2019-01-08T07:48:22.985Z,86.75
2019-01-08T07:50:51.117Z,84.78
2019-01-08T07:53:18.831Z,86.61
2019-01-08T07:55:46.680Z,85.12
2019-01-08T07:58:14.382Z,83.51
2019-01-08T08:00:49.758Z,82.37
2019-01-08T08:03:12.045Z,81.10
2019-01-08T08:05:40.152Z,81.72
2019-01-08T08:08:08.606Z,83.25
2019-01-08T08:10:36.675Z,81.09
2019-01-08T08:13:04.678Z,79.53
2019-01-08T08:15:32.607Z,79.47
2019-01-08T08:18:00.519Z,78.02
2019-01-08T08:20:28.263Z,76.90
2019-01-08T08:22:56.096Z,75.95
2019-01-08T08:25:23.969Z,76.50
2019-01-08T08:27:51.721Z,75.09
2019-01-08T08:30:19.465Z,74.83
2019-01-08T08:32:47.392Z,75.07
2019-01-08T08:35:15.179Z,76.41
2019-01-08T08:37:43.071Z,76.26
2019-01-08T08:40:11.014Z,76.30
2019-01-08T08:42:38.777Z,76.76
2019-01-08T08:45:08.522Z,77.07
2019-01-08T08:47:36.683Z,75.72
2019-01-08T08:50:05.025Z,75.19
2019-01-08T08:52:32.742Z,74.04
2019-01-08T08:55:00.717Z,76.07
2019-01-08T08:57:28.543Z,76.47
2019-01-08T08:59:56.416Z,77.20
2019-01-08T09:02:24.259Z,77.78
2019-01-08T09:04:52.016Z,78.80
2019-01-08T09:07:20.195Z,79.52
2019-01-08T09:09:48.076Z,80.34
2019-01-08T09:12:15.889Z,78.40
2019-01-08T09:14:43.652Z,77.91
2019-01-08T09:17:11.399Z,77.50
2019-01-08T09:19:39.091Z,77.71
2019-01-08T09:22:06.900Z,75.67
2019-01-08T09:24:34.745Z,74.99
2019-01-08T09:27:02.444Z,76.20
2019-01-08T09:29:31.807Z,75.10
2019-01-08T09:31:59.761Z,77.12
2019-01-08T09:34:27.585Z,71.50
2019-01-08T09:36:55.259Z,72.75
2019-01-08T09:39:22.962Z,73.70
2019-01-08T09:41:50.673Z,73.73
2019-01-08T09:44:18.302Z,74.14
2019-01-08T09:46:45.932Z,74.70
2019-01-08T09:49:13.476Z,75.00
2019-01-08T09:51:41.024Z,74.58
2019-01-08T09:54:08.869Z,75.68
2019-01-08T09:56:36.776Z,77.35
2019-01-08T09:59:04.652Z,77.09
2019-01-08T10:01:32.185Z,78.21
2019-01-08T10:03:59.688Z,75.04
2019-01-08T10:06:27.343Z,75.15
2019-01-08T10:08:55.031Z,73.57
2019-01-08T10:11:22.594Z,75.11
2019-01-08T10:13:50.251Z,75.95
2019-01-08T10:16:17.828Z,75.37
2019-01-08T10:18:45.519Z,74.13
2019-01-08T10:21:13.153Z,71.97
2019-01-08T10:23:40.769Z,72.94
2019-01-08T10:26:08.389Z,71.56
2019-01-08T10:28:36.173Z,69.86
2019-01-08T10:31:03.692Z,69.25
2019-01-08T10:33:31.413Z,71.60
2019-01-08T10:35:59.802Z,69.78
2019-01-08T10:38:27.477Z,72.88
2019-01-08T10:40:55.263Z,69.97
2019-01-08T10:43:23.249Z,67.06
2019-01-08T10:45:50.952Z,69.71
2019-01-08T10:48:18.565Z,71.77
2019-01-08T10:50:46.310Z,67.72
2019-01-08T10:53:14.006Z,69.14
2019-01-08T10:55:41.646Z,67.24
2019-01-08T10:58:09.378Z,66.94
2019-01-08T11:00:37.089Z,68.14
2019-01-08T11:03:04.853Z,67.27
2019-01-08T11:05:32.668Z,69.03
2019-01-08T11:08:00.495Z,69.24
2019-01-08T11:10:28.421Z,67.79
2019-01-08T11:12:56.334Z,66.38
2019-01-08T11:15:24.416Z,66.98
2019-01-08T11:17:52.185Z,65.14
2019-01-08T11:20:19.888Z,67.08
2019-01-08T11:22:47.590Z,63.94
2019-01-08T11:25:15.305Z,66.14
2019-01-08T11:27:43.232Z,67.30
2019-01-08T11:30:11.064Z,66.34
2019-01-08T11:32:38.943Z,65.39
2019-01-08T11:35:06.811Z,63.78
2019-01-08T11:37:34.849Z,63.60
2019-01-08T11:40:02.487Z,65.11
2019-01-08T11:42:30.422Z,70.95
2019-01-08T11:44:58.694Z,64.86
2019-01-08T11:47:26.527Z,63.97
2019-01-08T11:49:54.365Z,65.17
2019-01-08T11:52:22.120Z,66.02
2019-01-08T11:54:49.993Z,68.39
2019-01-08T11:57:17.808Z,68.12
2019-01-08T11:59:45.691Z,68.49
2019-01-08T12:02:13.512Z,66.18
2019-01-08T12:04:41.272Z,67.55
2019-01-08T12:07:09.085Z,69.32
2019-01-08T12:09:37.064Z,64.93
2019-01-08T12:12:04.834Z,65.43
2019-01-08T12:14:32.547Z,66.33
2019-01-08T12:17:00.367Z,65.68
2019-01-08T12:19:28.191Z,65.09
2019-01-08T12:21:56.048Z,67.22
2019-01-08T12:24:23.788Z,68.53
2019-01-08T12:26:51.309Z,66.49
2019-01-08T12:29:18.815Z,65.78
2019-01-08T12:31:46.356Z,66.39
2019-01-08T12:34:13.848Z,64.83
2019-01-08T12:36:41.537Z,66.97
2019-01-08T12:39:09.124Z,67.75
2019-01-08T12:41:36.729Z,65.53
2019-01-08T12:44:04.238Z,66.46
2019-01-08T12:46:31.749Z,65.62
2019-01-08T12:48:59.231Z,64.99
2019-01-08T12:51:26.758Z,63.87
2019-01-08T12:53:54.510Z,66.84
2019-01-08T12:56:22.013Z,67.82
2019-01-08T12:58:49.515Z,66.57
2019-01-08T13:01:17.023Z,64.37
2019-01-08T13:03:44.559Z,64.36
2019-01-08T13:06:12.041Z,65.26
2019-01-08T13:08:39.631Z,65.71
2019-01-08T13:11:07.143Z,67.66
2019-01-08T13:13:34.778Z,66.93
2019-01-08T13:16:02.349Z,67.70
2019-01-08T13:18:30.390Z,67.94
2019-01-08T13:20:58.166Z,65.42
2019-01-08T13:23:26.093Z,67.93
2019-01-08T13:25:53.770Z,66.09
2019-01-08T13:28:23.403Z,66.62
2019-01-08T13:30:50.939Z,68.13
2019-01-08T13:33:18.532Z,68.71
2019-01-08T13:35:46.107Z,70.91
2019-01-08T13:38:13.830Z,70.54
2019-01-08T13:40:41.469Z,67.69
2019-01-08T13:43:09.102Z,67.78
2019-01-08T13:45:36.623Z,69.53
2019-01-08T13:48:04.452Z,68.56
2019-01-08T13:50:31.979Z,68.02
2019-01-08T13:52:59.461Z,69.85
2019-01-08T13:55:26.959Z,69.22
2019-01-08T13:57:54.484Z,71.22
2019-01-08T14:00:22.048Z,72.38
2019-01-08T14:02:49.562Z,70.73
2019-01-08T14:05:17.179Z,71.30
2019-01-08T14:07:44.867Z,73.60
2019-01-08T14:10:13.088Z,72.82
2019-01-08T14:12:40.804Z,71.24
2019-01-08T14:15:08.424Z,71.13
2019-01-08T14:17:36.157Z,72.62
2019-01-08T14:20:04.161Z,73.54
2019-01-08T14:22:31.838Z,73.71
2019-01-08T14:24:59.414Z,74.00
2019-01-08T14:27:26.976Z,75.00
2019-01-08T14:29:54.520Z,74.82
2019-01-08T14:32:22.228Z,75.59
2019-01-08T14:34:50.049Z,75.11
2019-01-08T14:37:17.646Z,77.77
2019-01-08T14:39:45.486Z,75.40
2019-01-08T14:42:13.099Z,75.14
2019-01-08T14:44:40.669Z,74.16
2019-01-08T14:47:08.189Z,73.30
2019-01-08T14:49:36.060Z,73.95
2019-01-08T14:52:03.724Z,73.37
2019-01-08T14:54:31.540Z,73.42
2019-01-08T14:56:59.163Z,74.00
2019-01-08T14:59:26.919Z,76.92
2019-01-08T15:01:54.510Z,75.13
2019-01-08T15:04:22.147Z,76.29
2019-01-08T15:06:49.796Z,76.54
2019-01-08T15:09:17.582Z,75.17
2019-01-08T15:11:45.466Z,77.03
2019-01-08T15:14:13.023Z,74.19
2019-01-08T15:16:40.954Z,74.46
2019-01-08T15:19:08.713Z,74.48
2019-01-08T15:21:36.204Z,74.83
2019-01-08T15:24:03.799Z,74.88
2019-01-08T15:26:31.385Z,75.36
2019-01-08T15:28:58.927Z,75.09
2019-01-08T15:31:26.519Z,76.70
2019-01-08T15:33:54.031Z,78.74
2019-01-08T15:36:21.743Z,79.35
2019-01-08T15:38:49.298Z,80.53
2019-01-08T15:41:16.995Z,80.47
2019-01-08T15:43:44.705Z,78.49
2019-01-08T15:46:13.124Z,77.30
2019-01-08T15:48:40.925Z,78.65
2019-01-08T15:51:08.589Z,81.17
2019-01-08T15:53:36.208Z,82.92
2019-01-08T15:56:03.963Z,83.83
2019-01-08T15:58:31.553Z,84.54
2019-01-08T16:00:59.167Z,83.14
2019-01-08T16:03:26.909Z,79.98
2019-01-08T16:05:54.563Z,78.69
2019-01-08T16:08:22.376Z,77.23
2019-01-08T16:10:50.234Z,76.67
2019-01-08T16:13:18.013Z,75.77
2019-01-08T16:15:45.740Z,78.57
2019-01-08T16:18:13.429Z,77.03
2019-01-08T16:20:41.061Z,75.95
2019-01-08T16:23:08.767Z,76.15
2019-01-08T16:25:36.346Z,76.71
2019-01-08T16:28:04.026Z,78.80
2019-01-08T16:30:31.853Z,76.63
2019-01-08T16:32:59.577Z,79.84
2019-01-08T16:35:27.082Z,80.18
2019-01-08T16:37:54.723Z,80.78
2019-01-08T16:40:22.322Z,78.29
2019-01-08T16:42:50.102Z,76.26
2019-01-08T16:45:17.825Z,77.62
2019-01-08T16:47:45.421Z,77.87
2019-01-08T16:50:13.134Z,79.44
2019-01-08T16:52:40.977Z,78.12
2019-01-08T16:55:08.605Z,78.23
2019-01-08T16:57:36.290Z,76.70
2019-01-08T17:00:05.993Z,77.71
2019-01-08T17:02:33.589Z,77.72
2019-01-08T17:05:01.864Z,79.56
2019-01-08T17:07:29.606Z,79.46
2019-01-08T17:09:57.327Z,80.34
2019-01-08T17:12:25.254Z,80.67
2019-01-08T17:14:53.226Z,81.39
2019-01-08T17:17:21.093Z,80.47
2019-01-08T17:19:49.091Z,81.12
2019-01-08T17:22:18.229Z,81.39
2019-01-08T17:24:45.882Z,82.68
2019-01-08T17:27:15.738Z,84.10
2019-01-08T17:29:43.606Z,84.58
2019-01-08T17:32:11.381Z,85.01
2019-01-08T17:34:39.319Z,85.62
2019-01-08T17:37:07.195Z,83.94
2019-01-08T17:39:35.297Z,85.44
2019-01-08T17:42:03.153Z,85.41
2019-01-08T17:44:31.171Z,85.15
2019-01-08T17:46:59.267Z,83.51
2019-01-08T17:49:27.307Z,85.09
2019-01-08T17:51:55.317Z,85.06
2019-01-08T17:54:23.627Z,85.06
2019-01-08T17:56:52.947Z,87.70
2019-01-08T17:59:21.527Z,88.32
2019-01-08T18:01:52.876Z,89.26
2019-01-08T18:04:20.919Z,89.50
2019-01-08T18:06:48.848Z,89.44
2019-01-08T18:09:16.651Z,89.03
2019-01-08T18:11:44.526Z,89.30
2019-01-08T18:14:12.165Z,89.67
2019-01-08T18:16:39.952Z,90.92
2019-01-08T18:19:07.792Z,89.78
2019-01-08T18:21:35.595Z,91.51
2019-01-08T18:24:03.340Z,91.26
2019-01-08T18:26:31.042Z,91.48
2019-01-08T18:28:58.745Z,91.41
2019-01-08T18:31:26.839Z,91.78
2019-01-08T18:33:55.781Z,91.27
2019-01-08T18:36:23.873Z,90.90
2019-01-08T18:38:51.723Z,90.73
2019-01-08T18:41:19.509Z,89.03
2019-01-08T18:43:47.630Z,90.44
2019-01-08T18:46:15.547Z,90.86
2019-01-08T18:48:43.159Z,91.67
2019-01-08T18:51:10.727Z,91.52
2019-01-08T18:53:38.278Z,91.48
2019-01-08T18:56:05.926Z,92.52
2019-01-08T18:58:33.577Z,90.81
2019-01-08T19:01:01.409Z,90.96
2019-01-08T19:03:29.028Z,90.90
2019-01-08T19:05:56.921Z,90.39
2019-01-08T19:08:54.493Z,90.08
2019-01-08T19:11:22.268Z,91.14
2019-01-08T19:13:49.945Z,88.96
2019-01-08T19:16:17.421Z,89.96
2019-01-08T19:18:44.980Z,89.44
2019-01-08T19:21:12.580Z,90.87
2019-01-08T19:23:40.216Z,93.02
2019-01-08T19:26:08.013Z,88.24
2019-01-08T19:28:35.602Z,91.53
2019-01-08T19:31:03.506Z,89.62
2019-01-08T19:33:31.035Z,89.80
2019-01-08T19:35:58.679Z,90.58
2019-01-08T19:38:26.379Z,84.47
2019-01-08T19:40:54.262Z,85.77
2019-01-08T19:43:23.036Z,84.44
2019-01-08T19:45:50.944Z,82.79
2019-01-08T19:48:19.195Z,82.04
2019-01-08T19:50:46.937Z,82.30
2019-01-08T19:53:14.897Z,87.77
2019-01-08T19:55:42.488Z,86.20
2019-01-08T19:58:10.073Z,86.72
2019-01-08T20:00:37.667Z,84.64
2019-01-08T20:03:05.893Z,84.08
2019-01-08T20:05:33.478Z,84.26
2019-01-08T20:08:01.361Z,84.82
2019-01-08T20:10:29.083Z,85.11
2019-01-08T20:12:57.146Z,86.43
2019-01-08T20:15:25.156Z,86.22
2019-01-08T20:17:53.101Z,86.26
2019-01-08T20:20:20.723Z,89.47
2019-01-08T20:22:48.487Z,90.31
2019-01-08T20:25:16.250Z,90.59
2019-01-08T20:27:43.850Z,90.35
2019-01-08T20:30:11.626Z,90.98
2019-01-08T20:32:39.330Z,92.24
2019-01-08T20:35:06.936Z,90.87
2019-01-08T20:37:34.833Z,91.37
2019-01-08T20:40:02.882Z,91.57
2019-01-08T20:42:30.588Z,91.43
2019-01-08T20:44:59.130Z,91.75
2019-01-08T20:47:26.813Z,92.00
2019-01-08T20:49:54.539Z,91.28
2019-01-08T20:52:22.270Z,89.83
2019-01-08T20:54:50.150Z,92.30
2019-01-08T20:57:17.919Z,92.71
2019-01-08T20:59:45.966Z,89.41
2019-01-08T21:02:13.765Z,90.28
2019-01-08T21:04:41.455Z,90.30
2019-01-08T21:07:08.935Z,82.69
2019-01-08T21:09:36.397Z,81.10
2019-01-08T21:12:03.887Z,82.93
2019-01-08T21:14:31.460Z,84.14
2019-01-08T21:16:58.988Z,82.09
2019-01-08T21:19:26.517Z,79.46
2019-01-08T21:21:54.007Z,79.51
2019-01-08T21:24:28.566Z,80.72
2019-01-08T21:26:50.913Z,82.61
2019-01-08T21:29:18.435Z,79.13
2019-01-08T21:31:46.018Z,78.58
2019-01-08T21:34:13.563Z,78.31
2019-01-08T21:36:41.083Z,80.26
2019-01-08T21:39:08.721Z,82.06
2019-01-08T21:41:36.229Z,81.62
2019-01-08T21:44:03.739Z,85.37
2019-01-08T21:46:31.244Z,87.89
2019-01-08T21:48:58.784Z,88.78
2019-01-08T21:51:26.269Z,88.40
2019-01-08T21:53:54.275Z,89.86
2019-01-08T21:56:21.814Z,86.65
2019-01-08T21:58:49.812Z,88.08
2019-01-08T22:01:17.284Z,88.93
2019-01-08T22:03:44.888Z,85.54
2019-01-08T22:06:12.553Z,88.85
2019-01-08T22:08:40.091Z,89.55
2019-01-08T22:11:08.027Z,87.55
2019-01-08T22:13:36.560Z,89.62
2019-01-08T22:16:04.151Z,87.81
2019-01-08T22:18:31.698Z,87.22
2019-01-08T22:20:59.206Z,89.62
2019-01-08T22:23:26.706Z,89.83
2019-01-08T22:25:54.222Z,87.20
2019-01-08T22:28:21.708Z,85.73
2019-01-08T22:30:49.270Z,83.38
2019-01-08T22:33:16.860Z,83.48
2019-01-08T22:35:45.487Z,83.17
2019-01-08T22:38:13.024Z,83.69
2019-01-08T22:40:40.790Z,84.35
2019-01-08T22:43:08.375Z,83.36
2019-01-08T22:45:36.012Z,85.47
2019-01-08T22:48:03.559Z,86.33
2019-01-08T22:50:31.106Z,86.43
2019-01-08T22:52:59.136Z,88.08
2019-01-08T22:55:26.677Z,89.65
2019-01-08T22:57:54.176Z,89.64
2019-01-08T23:00:59.927Z,90.11
2019-01-08T23:03:27.419Z,85.95
2019-01-08T23:05:54.997Z,86.24
2019-01-08T23:08:22.623Z,84.75
2019-01-08T23:10:50.131Z,84.88
2019-01-08T23:13:17.654Z,83.94
2019-01-08T23:15:45.159Z,82.84
2019-01-08T23:18:12.622Z,81.04
2019-01-08T23:20:40.321Z,80.74
2019-01-08T23:23:08.057Z,80.96
2019-01-08T23:25:35.676Z,81.25
2019-01-08T23:28:03.269Z,81.31
2019-01-08T23:30:30.729Z,82.00
2019-01-08T23:32:58.194Z,81.21
2019-01-08T23:35:25.759Z,80.84
2019-01-08T23:37:53.241Z,81.28
2019-01-08T23:40:20.926Z,80.69
2019-01-08T23:42:48.530Z,81.03
2019-01-08T23:45:16.012Z,80.38
2019-01-08T23:47:43.531Z,80.70
2019-01-08T23:50:11.041Z,83.95
2019-01-08T23:53:03.962Z,85.94
2019-01-08T23:55:32.372Z,87.01
2019-01-08T23:58:01.995Z,86.95
